sensor_id;sensor_type;location;lat;lon;timestamp;temperature;humidity
22578;DHT22;11455;52.390;13.028;2022-10-16T00:01:25;16.90;1.00
22578;DHT22;11455;52.390;13.028;2022-10-16T00:03:51;16.90;1.00
22578;DHT22;11455;52.390;13.028;2022-10-16T00:06:18;16.80;1.00
22578;DHT22;11455;52.390;13.028;2022-10-16T00:08:46;16.80;1.00
22578;DHT22;11455;52.390;13.028;2022-10-16T00:11:16;16.80;1.00
22578;DHT22;11455;52.390;13.028;2022-10-16T00:13:42;16.80;1.00
22578;DHT22;11455;52.390;13.028;2022-10-16T00:16:09;16.80;1.00
22578;DHT22;11455;52.390;13.028;2022-10-16T00:18:35;16.80;1.00
22578;DHT22;11455;52.390;13.028;2022-10-16T00:21:06;16.90;1.00
22578;DHT22;11455;52.390;13.028;2022-10-16T00:23:34;16.90;1.00
22578;DHT22;11455;52.390;13.028;2022-10-16T00:26:01;16.80;1.00
22578;DHT22;11455;52.390;13.028;2022-10-16T00:28:27;16.80;1.00
22578;DHT22;11455;52.390;13.028;2022-10-16T00:30:53;16.80;1.00
22578;DHT22;11455;52.390;13.028;2022-10-16T00:33:19;16.80;1.00
22578;DHT22;11455;52.390;13.028;2022-10-16T00:35:45;16.90;1.00
22578;DHT22;11455;52.390;13.028;2022-10-16T00:38:10;16.90;1.00
22578;DHT22;11455;52.390;13.028;2022-10-16T00:40:36;16.90;1.00
22578;DHT22;11455;52.390;13.028;2022-10-16T00:43:01;16.90;1.00
22578;DHT22;11455;52.390;13.028;2022-10-16T00:45:27;16.90;1.00
22578;DHT22;11455;52.390;13.028;2022-10-16T00:47:53;16.90;1.00
22578;DHT22;11455;52.390;13.028;2022-10-16T00:50:33;16.90;1.00
22578;DHT22;11455;52.390;13.028;2022-10-16T00:52:58;16.90;1.00
22578;DHT22;11455;52.390;13.028;2022-10-16T00:55:26;16.90;1.00
22578;DHT22;11455;52.390;13.028;2022-10-16T00:57:51;16.90;1.00
22578;DHT22;11455;52.390;13.028;2022-10-16T01:00:19;16.90;1.00
22578;DHT22;11455;52.390;13.028;2022-10-16T01:02:51;16.90;1.00
22578;DHT22;11455;52.390;13.028;2022-10-16T01:05:17;16.90;1.00
22578;DHT22;11455;52.390;13.028;2022-10-16T01:10:32;16.90;1.00
22578;DHT22;11455;52.390;13.028;2022-10-16T01:13:10;16.90;1.00
22578;DHT22;11455;52.390;13.028;2022-10-16T01:18:34;17.00;1.00
22578;DHT22;11455;52.390;13.028;2022-10-16T01:31:06;17.00;1.00
22578;DHT22;11455;52.390;13.028;2022-10-16T01:33:38;17.00;1.00
22578;DHT22;11455;52.390;13.028;2022-10-16T01:36:10;16.90;1.00
22578;DHT22;11455;52.390;13.028;2022-10-16T01:38:38;16.90;1.00
22578;DHT22;11455;52.390;13.028;2022-10-16T01:41:06;16.90;1.00
22578;DHT22;11455;52.390;13.028;2022-10-16T01:43:35;16.80;1.00
22578;DHT22;11455;52.390;13.028;2022-10-16T01:46:01;16.80;1.00
22578;DHT22;11455;52.390;13.028;2022-10-16T01:48:30;16.80;1.00
22578;DHT22;11455;52.390;13.028;2022-10-16T01:50:58;16.80;1.00
22578;DHT22;11455;52.390;13.028;2022-10-16T01:53:25;16.90;1.00
22578;DHT22;11455;52.390;13.028;2022-10-16T01:55:51;16.90;1.00
22578;DHT22;11455;52.390;13.028;2022-10-16T01:58:17;16.90;1.00
22578;DHT22;11455;52.390;13.028;2022-10-16T02:00:44;16.90;1.00
22578;DHT22;11455;52.390;13.028;2022-10-16T02:03:10;16.90;1.00
22578;DHT22;11455;52.390;13.028;2022-10-16T02:05:38;16.90;1.00
22578;DHT22;11455;52.390;13.028;2022-10-16T02:08:05;16.90;1.00
22578;DHT22;11455;52.390;13.028;2022-10-16T02:10:33;16.80;1.00
22578;DHT22;11455;52.390;13.028;2022-10-16T02:13:07;16.80;1.00
22578;DHT22;11455;52.390;13.028;2022-10-16T02:15:36;16.90;1.00
22578;DHT22;11455;52.390;13.028;2022-10-16T02:18:02;16.80;1.00
22578;DHT22;11455;52.390;13.028;2022-10-16T02:20:29;16.80;1.00
22578;DHT22;11455;52.390;13.028;2022-10-16T02:22:58;16.80;1.00
22578;DHT22;11455;52.390;13.028;2022-10-16T02:25:36;16.80;1.00
22578;DHT22;11455;52.390;13.028;2022-10-16T02:28:04;16.80;1.00
22578;DHT22;11455;52.390;13.028;2022-10-16T02:30:56;16.90;1.00
22578;DHT22;11455;52.390;13.028;2022-10-16T02:33:19;16.90;1.00
22578;DHT22;11455;52.390;13.028;2022-10-16T02:35:49;16.90;1.00
22578;DHT22;11455;52.390;13.028;2022-10-16T02:38:16;16.90;1.00
22578;DHT22;11455;52.390;13.028;2022-10-16T02:40:42;16.90;1.00
22578;DHT22;11455;52.390;13.028;2022-10-16T02:43:08;16.90;1.00
22578;DHT22;11455;52.390;13.028;2022-10-16T02:45:34;16.90;1.00
22578;DHT22;11455;52.390;13.028;2022-10-16T02:47:59;16.90;1.00
22578;DHT22;11455;52.390;13.028;2022-10-16T02:50:25;16.90;1.00
22578;DHT22;11455;52.390;13.028;2022-10-16T02:52:51;16.90;1.00
22578;DHT22;11455;52.390;13.028;2022-10-16T02:55:16;16.90;1.00
22578;DHT22;11455;52.390;13.028;2022-10-16T02:57:42;16.90;1.00
22578;DHT22;11455;52.390;13.028;2022-10-16T03:00:09;16.90;1.00
22578;DHT22;11455;52.390;13.028;2022-10-16T03:02:35;16.80;1.00
22578;DHT22;11455;52.390;13.028;2022-10-16T03:05:01;16.90;1.00
22578;DHT22;11455;52.390;13.028;2022-10-16T03:07:26;16.90;1.00
22578;DHT22;11455;52.390;13.028;2022-10-16T03:09:54;16.90;1.00
22578;DHT22;11455;52.390;13.028;2022-10-16T03:12:20;16.90;1.00
22578;DHT22;11455;52.390;13.028;2022-10-16T03:14:46;16.90;1.00
22578;DHT22;11455;52.390;13.028;2022-10-16T03:17:12;16.90;1.00
22578;DHT22;11455;52.390;13.028;2022-10-16T03:19:38;16.90;1.00
22578;DHT22;11455;52.390;13.028;2022-10-16T03:22:04;16.80;1.00
22578;DHT22;11455;52.390;13.028;2022-10-16T03:24:29;16.80;1.00
22578;DHT22;11455;52.390;13.028;2022-10-16T03:26:55;16.80;1.00
22578;DHT22;11455;52.390;13.028;2022-10-16T03:29:20;16.80;1.00
22578;DHT22;11455;52.390;13.028;2022-10-16T03:31:46;16.80;1.00
22578;DHT22;11455;52.390;13.028;2022-10-16T03:34:13;16.80;1.00
22578;DHT22;11455;52.390;13.028;2022-10-16T03:36:39;16.70;1.00
22578;DHT22;11455;52.390;13.028;2022-10-16T03:39:04;16.70;1.00
22578;DHT22;11455;52.390;13.028;2022-10-16T03:41:30;16.70;1.00
22578;DHT22;11455;52.390;13.028;2022-10-16T03:43:58;16.80;1.00
22578;DHT22;11455;52.390;13.028;2022-10-16T03:46:24;16.80;1.00
22578;DHT22;11455;52.390;13.028;2022-10-16T03:48:49;16.70;1.00
22578;DHT22;11455;52.390;13.028;2022-10-16T03:51:15;16.70;1.00
22578;DHT22;11455;52.390;13.028;2022-10-16T03:53:41;16.70;1.00
22578;DHT22;11455;52.390;13.028;2022-10-16T03:56:06;16.70;1.00
22578;DHT22;11455;52.390;13.028;2022-10-16T03:58:32;16.70;1.00
22578;DHT22;11455;52.390;13.028;2022-10-16T04:00:57;16.70;1.00
22578;DHT22;11455;52.390;13.028;2022-10-16T04:03:23;16.70;1.00
22578;DHT22;11455;52.390;13.028;2022-10-16T04:05:49;16.70;1.00
22578;DHT22;11455;52.390;13.028;2022-10-16T04:08:15;16.70;1.00
22578;DHT22;11455;52.390;13.028;2022-10-16T04:10:42;16.70;1.00
22578;DHT22;11455;52.390;13.028;2022-10-16T04:13:07;16.70;1.00
22578;DHT22;11455;52.390;13.028;2022-10-16T04:15:33;16.60;1.00
22578;DHT22;11455;52.390;13.028;2022-10-16T04:17:59;16.60;1.00
22578;DHT22;11455;52.390;13.028;2022-10-16T04:20:24;16.60;1.00
22578;DHT22;11455;52.390;13.028;2022-10-16T04:22:53;16.60;1.00
22578;DHT22;11455;52.390;13.028;2022-10-16T04:25:18;16.60;1.00
22578;DHT22;11455;52.390;13.028;2022-10-16T04:27:44;16.50;1.00
22578;DHT22;11455;52.390;13.028;2022-10-16T04:30:09;16.50;1.00
22578;DHT22;11455;52.390;13.028;2022-10-16T04:32:35;16.40;1.00
22578;DHT22;11455;52.390;13.028;2022-10-16T04:35:01;16.40;1.00
22578;DHT22;11455;52.390;13.028;2022-10-16T04:37:27;16.40;1.00
22578;DHT22;11455;52.390;13.028;2022-10-16T04:39:53;16.40;1.00
22578;DHT22;11455;52.390;13.028;2022-10-16T04:42:19;16.40;1.00
22578;DHT22;11455;52.390;13.028;2022-10-16T04:44:45;16.50;1.00
22578;DHT22;11455;52.390;13.028;2022-10-16T04:47:11;16.40;1.00
22578;DHT22;11455;52.390;13.028;2022-10-16T04:49:39;16.40;1.00
22578;DHT22;11455;52.390;13.028;2022-10-16T04:52:05;16.40;1.00
22578;DHT22;11455;52.390;13.028;2022-10-16T04:54:30;16.50;1.00
22578;DHT22;11455;52.390;13.028;2022-10-16T04:56:56;16.50;1.00
22578;DHT22;11455;52.390;13.028;2022-10-16T04:59:22;16.50;1.00
22578;DHT22;11455;52.390;13.028;2022-10-16T05:01:48;16.50;1.00
22578;DHT22;11455;52.390;13.028;2022-10-16T05:04:14;16.50;1.00
22578;DHT22;11455;52.390;13.028;2022-10-16T05:06:40;16.50;1.00
22578;DHT22;11455;52.390;13.028;2022-10-16T05:09:06;16.50;1.00
22578;DHT22;11455;52.390;13.028;2022-10-16T05:11:34;16.40;1.00
22578;DHT22;11455;52.390;13.028;2022-10-16T05:14:00;16.50;1.00
22578;DHT22;11455;52.390;13.028;2022-10-16T05:16:26;16.50;1.00
22578;DHT22;11455;52.390;13.028;2022-10-16T05:18:54;16.50;1.00
22578;DHT22;11455;52.390;13.028;2022-10-16T05:21:20;16.50;1.00
22578;DHT22;11455;52.390;13.028;2022-10-16T05:23:45;16.50;1.00
22578;DHT22;11455;52.390;13.028;2022-10-16T05:26:11;16.50;1.00
22578;DHT22;11455;52.390;13.028;2022-10-16T05:28:36;16.50;1.00
22578;DHT22;11455;52.390;13.028;2022-10-16T05:31:05;16.50;1.00
22578;DHT22;11455;52.390;13.028;2022-10-16T05:33:32;16.50;1.00
22578;DHT22;11455;52.390;13.028;2022-10-16T05:36:00;16.50;1.00
22578;DHT22;11455;52.390;13.028;2022-10-16T05:38:26;16.50;1.00
22578;DHT22;11455;52.390;13.028;2022-10-16T05:40:52;16.50;1.00
22578;DHT22;11455;52.390;13.028;2022-10-16T05:43:21;16.60;1.00
22578;DHT22;11455;52.390;13.028;2022-10-16T05:45:57;16.60;1.00
22578;DHT22;11455;52.390;13.028;2022-10-16T05:48:23;16.60;1.00
22578;DHT22;11455;52.390;13.028;2022-10-16T05:50:55;16.50;1.00
22578;DHT22;11455;52.390;13.028;2022-10-16T05:53:21;16.50;1.00
22578;DHT22;11455;52.390;13.028;2022-10-16T05:55:54;16.50;1.00
22578;DHT22;11455;52.390;13.028;2022-10-16T05:58:23;16.50;1.00
22578;DHT22;11455;52.390;13.028;2022-10-16T06:00:52;16.50;1.00
22578;DHT22;11455;52.390;13.028;2022-10-16T06:03:18;16.50;1.00
22578;DHT22;11455;52.390;13.028;2022-10-16T06:05:43;16.50;1.00
22578;DHT22;11455;52.390;13.028;2022-10-16T06:08:09;16.50;1.00
22578;DHT22;11455;52.390;13.028;2022-10-16T06:10:35;16.50;1.00
22578;DHT22;11455;52.390;13.028;2022-10-16T06:13:03;16.50;1.00
22578;DHT22;11455;52.390;13.028;2022-10-16T06:15:29;16.50;1.00
22578;DHT22;11455;52.390;13.028;2022-10-16T06:17:54;16.60;1.00
22578;DHT22;11455;52.390;13.028;2022-10-16T06:20:23;16.50;1.00
22578;DHT22;11455;52.390;13.028;2022-10-16T06:22:48;16.50;1.00
22578;DHT22;11455;52.390;13.028;2022-10-16T06:25:14;16.50;1.00
22578;DHT22;11455;52.390;13.028;2022-10-16T06:27:40;16.50;1.00
22578;DHT22;11455;52.390;13.028;2022-10-16T06:30:06;16.60;1.00
22578;DHT22;11455;52.390;13.028;2022-10-16T06:32:32;16.60;1.00
22578;DHT22;11455;52.390;13.028;2022-10-16T06:34:58;16.60;1.00
22578;DHT22;11455;52.390;13.028;2022-10-16T06:37:24;16.60;1.00
22578;DHT22;11455;52.390;13.028;2022-10-16T06:39:50;16.60;1.00
22578;DHT22;11455;52.390;13.028;2022-10-16T06:42:17;16.60;1.00
22578;DHT22;11455;52.390;13.028;2022-10-16T06:44:44;16.70;1.00
22578;DHT22;11455;52.390;13.028;2022-10-16T06:47:10;16.60;1.00
22578;DHT22;11455;52.390;13.028;2022-10-16T06:49:43;16.70;1.00
22578;DHT22;11455;52.390;13.028;2022-10-16T06:52:09;16.60;1.00
22578;DHT22;11455;52.390;13.028;2022-10-16T06:54:35;16.60;1.00
22578;DHT22;11455;52.390;13.028;2022-10-16T06:57:00;16.70;1.00
22578;DHT22;11455;52.390;13.028;2022-10-16T06:59:27;16.70;1.00
22578;DHT22;11455;52.390;13.028;2022-10-16T07:01:55;16.70;1.00
22578;DHT22;11455;52.390;13.028;2022-10-16T07:04:21;16.70;1.00
22578;DHT22;11455;52.390;13.028;2022-10-16T07:06:46;16.80;1.00
22578;DHT22;11455;52.390;13.028;2022-10-16T07:09:12;16.80;1.00
22578;DHT22;11455;52.390;13.028;2022-10-16T07:11:38;16.80;1.00
22578;DHT22;11455;52.390;13.028;2022-10-16T07:14:04;16.90;1.00
22578;DHT22;11455;52.390;13.028;2022-10-16T07:16:31;17.10;1.00
22578;DHT22;11455;52.390;13.028;2022-10-16T07:18:58;17.10;1.00
22578;DHT22;11455;52.390;13.028;2022-10-16T07:21:25;17.20;1.00
22578;DHT22;11455;52.390;13.028;2022-10-16T07:23:51;17.10;1.00
22578;DHT22;11455;52.390;13.028;2022-10-16T07:26:17;17.10;1.00
22578;DHT22;11455;52.390;13.028;2022-10-16T07:28:43;17.10;1.00
22578;DHT22;11455;52.390;13.028;2022-10-16T07:31:10;17.10;1.00
22578;DHT22;11455;52.390;13.028;2022-10-16T07:33:36;17.10;1.00
22578;DHT22;11455;52.390;13.028;2022-10-16T07:36:01;17.00;1.00
22578;DHT22;11455;52.390;13.028;2022-10-16T07:38:27;17.00;1.00
22578;DHT22;11455;52.390;13.028;2022-10-16T07:41:11;17.00;1.00
22578;DHT22;11455;52.390;13.028;2022-10-16T07:43:37;16.90;1.00
22578;DHT22;11455;52.390;13.028;2022-10-16T07:46:03;16.90;1.00
22578;DHT22;11455;52.390;13.028;2022-10-16T07:48:30;16.90;1.00
22578;DHT22;11455;52.390;13.028;2022-10-16T07:50:59;16.90;1.00
22578;DHT22;11455;52.390;13.028;2022-10-16T07:53:25;16.90;1.00
22578;DHT22;11455;52.390;13.028;2022-10-16T07:55:51;16.90;1.00
22578;DHT22;11455;52.390;13.028;2022-10-16T07:58:16;16.90;1.00
22578;DHT22;11455;52.390;13.028;2022-10-16T08:00:42;16.90;1.00
22578;DHT22;11455;52.390;13.028;2022-10-16T08:03:10;16.90;1.00
22578;DHT22;11455;52.390;13.028;2022-10-16T08:05:36;17.00;1.00
22578;DHT22;11455;52.390;13.028;2022-10-16T08:08:01;17.00;1.00
22578;DHT22;11455;52.390;13.028;2022-10-16T08:10:28;17.00;1.00
22578;DHT22;11455;52.390;13.028;2022-10-16T08:12:54;17.00;1.00
22578;DHT22;11455;52.390;13.028;2022-10-16T08:15:19;17.00;1.00
22578;DHT22;11455;52.390;13.028;2022-10-16T08:17:55;17.10;1.00
22578;DHT22;11455;52.390;13.028;2022-10-16T08:20:24;17.10;1.00
22578;DHT22;11455;52.390;13.028;2022-10-16T08:22:50;17.10;1.00
22578;DHT22;11455;52.390;13.028;2022-10-16T08:25:15;17.10;1.00
22578;DHT22;11455;52.390;13.028;2022-10-16T08:27:41;17.10;1.00
22578;DHT22;11455;52.390;13.028;2022-10-16T08:30:07;17.10;1.00
22578;DHT22;11455;52.390;13.028;2022-10-16T08:32:35;17.00;1.00
22578;DHT22;11455;52.390;13.028;2022-10-16T08:35:03;17.00;1.00
22578;DHT22;11455;52.390;13.028;2022-10-16T08:37:30;17.00;1.00
22578;DHT22;11455;52.390;13.028;2022-10-16T08:39:56;17.00;1.00
22578;DHT22;11455;52.390;13.028;2022-10-16T08:42:29;17.00;1.00
22578;DHT22;11455;52.390;13.028;2022-10-16T08:50:25;17.10;1.00
22578;DHT22;11455;52.390;13.028;2022-10-16T08:52:52;17.10;1.00
22578;DHT22;11455;52.390;13.028;2022-10-16T08:57:48;17.30;1.00
22578;DHT22;11455;52.390;13.028;2022-10-16T09:00:21;17.30;1.00
22578;DHT22;11455;52.390;13.028;2022-10-16T09:15:34;17.30;1.00
22578;DHT22;11455;52.390;13.028;2022-10-16T09:23:48;17.40;1.00
22578;DHT22;11455;52.390;13.028;2022-10-16T09:26:14;17.50;1.00
22578;DHT22;11455;52.390;13.028;2022-10-16T09:28:41;17.60;1.00
22578;DHT22;11455;52.390;13.028;2022-10-16T09:31:14;17.60;1.00
22578;DHT22;11455;52.390;13.028;2022-10-16T09:33:40;17.70;99.90
22578;DHT22;11455;52.390;13.028;2022-10-16T09:36:08;17.80;99.90
22578;DHT22;11455;52.390;13.028;2022-10-16T09:38:34;17.90;99.90
22578;DHT22;11455;52.390;13.028;2022-10-16T09:41:02;17.90;99.90
22578;DHT22;11455;52.390;13.028;2022-10-16T09:43:36;17.90;99.90
22578;DHT22;11455;52.390;13.028;2022-10-16T09:46:05;17.90;99.90
22578;DHT22;11455;52.390;13.028;2022-10-16T09:48:33;17.80;99.90
22578;DHT22;11455;52.390;13.028;2022-10-16T09:51:04;17.80;99.90
22578;DHT22;11455;52.390;13.028;2022-10-16T09:53:43;17.90;99.90
22578;DHT22;11455;52.390;13.028;2022-10-16T09:56:09;18.00;99.90
22578;DHT22;11455;52.390;13.028;2022-10-16T09:58:35;18.10;99.90
22578;DHT22;11455;52.390;13.028;2022-10-16T10:01:03;18.10;99.90
22578;DHT22;11455;52.390;13.028;2022-10-16T10:06:06;18.30;99.90
22578;DHT22;11455;52.390;13.028;2022-10-16T10:08:34;18.30;99.90
22578;DHT22;11455;52.390;13.028;2022-10-16T10:10:59;18.30;99.90
22578;DHT22;11455;52.390;13.028;2022-10-16T10:13:25;18.40;99.90
22578;DHT22;11455;52.390;13.028;2022-10-16T10:15:52;18.40;99.90
22578;DHT22;11455;52.390;13.028;2022-10-16T10:18:21;18.40;99.90
22578;DHT22;11455;52.390;13.028;2022-10-16T10:21:01;18.40;99.90
22578;DHT22;11455;52.390;13.028;2022-10-16T10:23:27;18.40;99.90
22578;DHT22;11455;52.390;13.028;2022-10-16T10:25:59;18.40;99.90
22578;DHT22;11455;52.390;13.028;2022-10-16T10:31:25;18.50;99.90
22578;DHT22;11455;52.390;13.028;2022-10-16T10:34:11;18.60;99.90
22578;DHT22;11455;52.390;13.028;2022-10-16T10:36:43;18.70;99.90
22578;DHT22;11455;52.390;13.028;2022-10-16T10:39:15;18.70;99.90
22578;DHT22;11455;52.390;13.028;2022-10-16T10:52:29;18.90;99.90
22578;DHT22;11455;52.390;13.028;2022-10-16T10:55:23;18.80;99.90
22578;DHT22;11455;52.390;13.028;2022-10-16T11:02:46;19.00;99.90
22578;DHT22;11455;52.390;13.028;2022-10-16T11:05:25;19.10;99.90
22578;DHT22;11455;52.390;13.028;2022-10-16T11:08:04;19.20;99.90
22578;DHT22;11455;52.390;13.028;2022-10-16T11:13:23;19.10;36.10
22578;DHT22;11455;52.390;13.028;2022-10-16T11:15:52;19.20;18.80
22578;DHT22;11455;52.390;13.028;2022-10-16T11:18:24;19.20;10.10
22578;DHT22;11455;52.390;13.028;2022-10-16T11:20:56;19.20;15.50
22578;DHT22;11455;52.390;13.028;2022-10-16T11:23:28;19.20;1.00
22578;DHT22;11455;52.390;13.028;2022-10-16T11:25:55;19.20;1.00
22578;DHT22;11455;52.390;13.028;2022-10-16T11:28:26;19.20;1.00
22578;DHT22;11455;52.390;13.028;2022-10-16T11:36:22;19.30;1.00
22578;DHT22;11455;52.390;13.028;2022-10-16T11:41:24;19.40;1.00
22578;DHT22;11455;52.390;13.028;2022-10-16T11:43:58;19.30;1.00
22578;DHT22;11455;52.390;13.028;2022-10-16T11:46:26;19.30;1.00
22578;DHT22;11455;52.390;13.028;2022-10-16T11:48:57;19.30;1.00
22578;DHT22;11455;52.390;13.028;2022-10-16T11:54:14;19.40;1.00
22578;DHT22;11455;52.390;13.028;2022-10-16T11:56:41;19.40;1.00
22578;DHT22;11455;52.390;13.028;2022-10-16T12:01:58;19.50;1.00
22578;DHT22;11455;52.390;13.028;2022-10-16T12:04:37;19.50;1.00
22578;DHT22;11455;52.390;13.028;2022-10-16T12:07:21;19.50;1.00
22578;DHT22;11455;52.390;13.028;2022-10-16T12:09:50;19.50;1.00
22578;DHT22;11455;52.390;13.028;2022-10-16T12:17:46;20.10;1.00
22578;DHT22;11455;52.390;13.028;2022-10-16T12:22:40;20.50;1.00
22578;DHT22;11455;52.390;13.028;2022-10-16T12:25:19;20.60;1.00
22578;DHT22;11455;52.390;13.028;2022-10-16T12:27:45;20.80;1.00
22578;DHT22;11455;52.390;13.028;2022-10-16T12:30:14;20.90;1.00
22578;DHT22;11455;52.390;13.028;2022-10-16T12:32:53;20.90;1.00
22578;DHT22;11455;52.390;13.028;2022-10-16T12:35:20;20.90;1.00
22578;DHT22;11455;52.390;13.028;2022-10-16T12:37:49;21.00;1.00
22578;DHT22;11455;52.390;13.028;2022-10-16T12:40:31;21.10;1.00
22578;DHT22;11455;52.390;13.028;2022-10-16T12:42:58;21.20;1.00
22578;DHT22;11455;52.390;13.028;2022-10-16T12:45:31;20.90;1.00
22578;DHT22;11455;52.390;13.028;2022-10-16T12:47:57;20.70;1.00
22578;DHT22;11455;52.390;13.028;2022-10-16T12:50:27;20.50;1.00
22578;DHT22;11455;52.390;13.028;2022-10-16T12:52:53;20.30;1.00
22578;DHT22;11455;52.390;13.028;2022-10-16T12:55:20;20.20;1.00
22578;DHT22;11455;52.390;13.028;2022-10-16T13:13:08;20.40;1.00
22578;DHT22;11455;52.390;13.028;2022-10-16T13:23:43;21.00;1.00
22578;DHT22;11455;52.390;13.028;2022-10-16T13:28:48;21.30;1.00
22578;DHT22;11455;52.390;13.028;2022-10-16T13:31:21;21.40;1.00
22578;DHT22;11455;52.390;13.028;2022-10-16T13:33:49;21.50;1.00
22578;DHT22;11455;52.390;13.028;2022-10-16T13:36:22;21.40;1.00
22578;DHT22;11455;52.390;13.028;2022-10-16T13:41:34;21.20;1.00
22578;DHT22;11455;52.390;13.028;2022-10-16T13:44:00;21.30;1.00
22578;DHT22;11455;52.390;13.028;2022-10-16T13:46:28;21.50;1.00
22578;DHT22;11455;52.390;13.028;2022-10-16T13:51:23;21.40;1.00
22578;DHT22;11455;52.390;13.028;2022-10-16T13:53:48;21.20;1.00
22578;DHT22;11455;52.390;13.028;2022-10-16T13:56:15;21.00;1.00
22578;DHT22;11455;52.390;13.028;2022-10-16T13:58:41;20.90;1.00
22578;DHT22;11455;52.390;13.028;2022-10-16T14:01:20;20.80;1.00
22578;DHT22;11455;52.390;13.028;2022-10-16T14:03:48;20.90;1.00
22578;DHT22;11455;52.390;13.028;2022-10-16T14:06:18;20.90;1.00
22578;DHT22;11455;52.390;13.028;2022-10-16T14:11:22;21.00;1.00
22578;DHT22;11455;52.390;13.028;2022-10-16T14:13:51;21.10;1.00
22578;DHT22;11455;52.390;13.028;2022-10-16T14:16:27;21.20;1.00
22578;DHT22;11455;52.390;13.028;2022-10-16T14:19:00;21.30;1.00
22578;DHT22;11455;52.390;13.028;2022-10-16T14:21:26;21.40;1.00
22578;DHT22;11455;52.390;13.028;2022-10-16T14:23:52;21.50;1.00
22578;DHT22;11455;52.390;13.028;2022-10-16T14:26:26;21.60;1.00
22578;DHT22;11455;52.390;13.028;2022-10-16T14:31:57;21.90;1.00
22578;DHT22;11455;52.390;13.028;2022-10-16T14:34:31;21.90;1.00
22578;DHT22;11455;52.390;13.028;2022-10-16T14:37:10;21.90;1.00
22578;DHT22;11455;52.390;13.028;2022-10-16T14:39:39;22.00;1.00
22578;DHT22;11455;52.390;13.028;2022-10-16T14:42:11;22.10;1.00
22578;DHT22;11455;52.390;13.028;2022-10-16T14:44:39;22.10;1.00
22578;DHT22;11455;52.390;13.028;2022-10-16T14:47:09;22.20;1.00
22578;DHT22;11455;52.390;13.028;2022-10-16T14:49:35;22.10;1.00
22578;DHT22;11455;52.390;13.028;2022-10-16T14:52:01;22.10;1.00
22578;DHT22;11455;52.390;13.028;2022-10-16T14:54:29;22.20;1.00
22578;DHT22;11455;52.390;13.028;2022-10-16T14:56:58;22.10;1.00
22578;DHT22;11455;52.390;13.028;2022-10-16T14:59:57;22.10;1.00
22578;DHT22;11455;52.390;13.028;2022-10-16T15:02:28;22.10;1.00
22578;DHT22;11455;52.390;13.028;2022-10-16T15:04:55;21.90;1.00
22578;DHT22;11455;52.390;13.028;2022-10-16T15:07:20;21.90;1.00
22578;DHT22;11455;52.390;13.028;2022-10-16T15:09:46;21.80;1.00
22578;DHT22;11455;52.390;13.028;2022-10-16T15:12:12;21.60;1.00
22578;DHT22;11455;52.390;13.028;2022-10-16T15:14:37;21.50;1.00
22578;DHT22;11455;52.390;13.028;2022-10-16T15:17:03;21.40;1.00
22578;DHT22;11455;52.390;13.028;2022-10-16T15:19:29;21.20;1.00
22578;DHT22;11455;52.390;13.028;2022-10-16T15:21:55;21.20;1.00
22578;DHT22;11455;52.390;13.028;2022-10-16T15:24:21;21.10;1.00
22578;DHT22;11455;52.390;13.028;2022-10-16T15:26:47;21.00;1.00
22578;DHT22;11455;52.390;13.028;2022-10-16T15:29:12;20.80;1.00
22578;DHT22;11455;52.390;13.028;2022-10-16T15:31:38;20.80;1.00
22578;DHT22;11455;52.390;13.028;2022-10-16T15:34:08;20.80;1.00
22578;DHT22;11455;52.390;13.028;2022-10-16T15:36:34;20.70;1.00
22578;DHT22;11455;52.390;13.028;2022-10-16T15:39:02;20.70;1.00
22578;DHT22;11455;52.390;13.028;2022-10-16T15:41:28;20.70;1.00
22578;DHT22;11455;52.390;13.028;2022-10-16T15:43:53;20.60;1.00
22578;DHT22;11455;52.390;13.028;2022-10-16T15:46:20;20.60;1.00
22578;DHT22;11455;52.390;13.028;2022-10-16T15:48:46;20.60;1.00
22578;DHT22;11455;52.390;13.028;2022-10-16T15:51:12;20.50;1.00
22578;DHT22;11455;52.390;13.028;2022-10-16T15:53:37;20.40;1.00
22578;DHT22;11455;52.390;13.028;2022-10-16T15:56:07;20.30;1.00
22578;DHT22;11455;52.390;13.028;2022-10-16T15:58:36;20.20;1.00
22578;DHT22;11455;52.390;13.028;2022-10-16T16:01:02;20.20;1.00
22578;DHT22;11455;52.390;13.028;2022-10-16T16:03:31;20.20;1.00
22578;DHT22;11455;52.390;13.028;2022-10-16T16:05:57;20.20;1.00
22578;DHT22;11455;52.390;13.028;2022-10-16T16:08:22;20.20;1.00
22578;DHT22;11455;52.390;13.028;2022-10-16T16:11:01;20.10;1.00
22578;DHT22;11455;52.390;13.028;2022-10-16T16:13:27;20.10;1.00
22578;DHT22;11455;52.390;13.028;2022-10-16T16:15:53;20.00;1.00
22578;DHT22;11455;52.390;13.028;2022-10-16T16:18:20;20.00;1.00
22578;DHT22;11455;52.390;13.028;2022-10-16T16:20:46;20.00;1.00
22578;DHT22;11455;52.390;13.028;2022-10-16T16:23:12;19.80;1.00
22578;DHT22;11455;52.390;13.028;2022-10-16T16:25:37;19.70;1.00
22578;DHT22;11455;52.390;13.028;2022-10-16T16:28:03;19.60;1.00
22578;DHT22;11455;52.390;13.028;2022-10-16T16:30:28;19.40;1.00
22578;DHT22;11455;52.390;13.028;2022-10-16T16:32:54;19.30;1.00
22578;DHT22;11455;52.390;13.028;2022-10-16T16:35:19;19.20;1.00
22578;DHT22;11455;52.390;13.028;2022-10-16T16:37:47;19.20;1.00
22578;DHT22;11455;52.390;13.028;2022-10-16T16:40:13;19.20;1.00
22578;DHT22;11455;52.390;13.028;2022-10-16T16:42:39;19.10;1.00
22578;DHT22;11455;52.390;13.028;2022-10-16T16:45:05;19.10;1.00
22578;DHT22;11455;52.390;13.028;2022-10-16T16:47:31;19.00;1.00
22578;DHT22;11455;52.390;13.028;2022-10-16T16:49:56;18.90;1.00
22578;DHT22;11455;52.390;13.028;2022-10-16T16:52:22;18.80;1.00
22578;DHT22;11455;52.390;13.028;2022-10-16T16:54:48;18.80;1.00
22578;DHT22;11455;52.390;13.028;2022-10-16T16:57:17;18.70;1.00
22578;DHT22;11455;52.390;13.028;2022-10-16T16:59:43;18.60;1.00
22578;DHT22;11455;52.390;13.028;2022-10-16T17:02:09;18.50;1.00
22578;DHT22;11455;52.390;13.028;2022-10-16T17:04:34;18.40;1.00
22578;DHT22;11455;52.390;13.028;2022-10-16T17:07:00;18.30;1.00
22578;DHT22;11455;52.390;13.028;2022-10-16T17:09:25;18.20;1.00
22578;DHT22;11455;52.390;13.028;2022-10-16T17:11:51;18.10;1.00
22578;DHT22;11455;52.390;13.028;2022-10-16T17:14:17;18.00;1.00
22578;DHT22;11455;52.390;13.028;2022-10-16T17:16:48;17.90;1.00
22578;DHT22;11455;52.390;13.028;2022-10-16T17:19:15;17.80;1.00
22578;DHT22;11455;52.390;13.028;2022-10-16T17:21:41;17.70;1.00
22578;DHT22;11455;52.390;13.028;2022-10-16T17:24:07;17.70;1.10
22578;DHT22;11455;52.390;13.028;2022-10-16T17:26:36;17.70;1.00
22578;DHT22;11455;52.390;13.028;2022-10-16T17:29:10;17.80;1.00
22578;DHT22;11455;52.390;13.028;2022-10-16T17:31:36;17.90;1.00
22578;DHT22;11455;52.390;13.028;2022-10-16T17:34:02;17.90;1.00
22578;DHT22;11455;52.390;13.028;2022-10-16T17:36:32;17.90;1.00
22578;DHT22;11455;52.390;13.028;2022-10-16T17:39:03;17.80;1.00